createdAt,value
2023-03-21T00:01:34.570Z,45.80
2023-03-21T00:03:37.930Z,41.00
2023-03-21T00:05:42.077Z,39.70
2023-03-21T00:07:45.034Z,39.63
2023-03-21T00:09:47.798Z,49.10
2023-03-21T00:11:50.662Z,55.93
2023-03-21T00:13:53.486Z,46.03
2023-03-21T00:16:17.958Z,43.70
2023-03-21T00:18:20.986Z,43.37
2023-03-21T00:20:23.803Z,48.73
2023-03-21T00:22:27.590Z,44.70
2023-03-21T00:24:30.765Z,47.57
2023-03-21T00:26:33.638Z,50.90
2023-03-21T00:28:36.467Z,49.33
2023-03-21T00:30:41.150Z,47.67
2023-03-21T00:32:55.235Z,48.30
2023-03-21T00:35:21.529Z,51.13
2023-03-21T00:37:22.922Z,43.83
2023-03-21T00:39:26.087Z,48.23
2023-03-21T00:41:42.071Z,39.23
2023-03-21T00:43:46.274Z,47.27
2023-03-21T00:45:49.061Z,67.22
2023-03-21T00:47:51.999Z,45.93
2023-03-21T00:49:54.831Z,41.97
2023-03-21T00:52:08.657Z,40.80
2023-03-21T00:54:18.056Z,35.77
2023-03-21T00:56:20.839Z,45.67
2023-03-21T00:58:23.618Z,43.47
2023-03-21T01:00:26.610Z,61.50
2023-03-21T01:02:29.438Z,38.00
2023-03-21T01:04:32.216Z,43.27
2023-03-21T01:06:39.349Z,43.93
2023-03-21T01:08:52.096Z,50.70
2023-03-21T01:10:56.325Z,44.37
2023-03-21T01:12:59.197Z,44.50
2023-03-21T01:15:01.983Z,37.80
2023-03-21T01:17:04.763Z,47.33
2023-03-21T01:19:15.052Z,53.30
2023-03-21T01:21:25.306Z,36.80
2023-03-21T01:23:28.388Z,38.77
2023-03-21T01:25:32.494Z,41.97
2023-03-21T01:27:35.279Z,33.73
2023-03-21T01:29:38.051Z,39.27
2023-03-21T01:31:40.944Z,47.83
2023-03-21T01:33:43.898Z,42.17
2023-03-21T01:35:53.349Z,43.57
2023-03-21T01:37:58.366Z,51.40
2023-03-21T01:40:01.138Z,49.57
2023-03-21T01:42:05.525Z,43.17
2023-03-21T01:44:08.324Z,44.57
2023-03-21T01:46:23.436Z,47.77
2023-03-21T01:48:26.193Z,42.10
2023-03-21T01:50:29.198Z,40.03
2023-03-21T01:52:37.624Z,48.73
2023-03-21T01:54:41.271Z,43.07
2023-03-21T01:56:45.320Z,40.20
2023-03-21T01:58:49.452Z,43.23
2023-03-21T02:00:52.395Z,39.47
2023-03-21T02:03:11.294Z,42.13
2023-03-21T02:05:15.557Z,40.00
2023-03-21T02:07:19.566Z,44.33
2023-03-21T02:09:23.826Z,46.77
2023-03-21T02:11:27.991Z,41.67
2023-03-21T02:13:33.831Z,42.27
2023-03-21T02:15:38.309Z,37.90
2023-03-21T02:17:43.102Z,39.13
2023-03-21T02:20:13.076Z,52.33
2023-03-21T02:22:40.693Z,47.10
2023-03-21T02:25:21.269Z,39.27
2023-03-21T02:27:24.904Z,51.03
2023-03-21T02:30:02.154Z,40.10
2023-03-21T02:32:20.227Z,44.17
2023-03-21T02:34:52.091Z,43.00
2023-03-21T02:37:04.469Z,37.87
2023-03-21T02:39:09.570Z,44.83
2023-03-21T02:41:19.097Z,35.50
2023-03-21T02:43:25.605Z,37.93
2023-03-21T02:45:29.376Z,41.53
2023-03-21T02:47:34.614Z,33.40
2023-03-21T02:49:41.873Z,40.90
2023-03-21T02:51:45.024Z,40.50
2023-03-21T02:54:04.572Z,41.80
2023-03-21T02:56:14.182Z,39.47
2023-03-21T02:58:18.453Z,44.37
2023-03-21T03:00:23.042Z,38.50
2023-03-21T03:02:27.959Z,38.73
2023-03-21T03:04:31.083Z,43.57
2023-03-21T03:06:38.256Z,37.57
2023-03-21T03:08:56.348Z,46.43
2023-03-21T03:11:13.944Z,36.33
2023-03-21T03:13:22.477Z,36.03
2023-03-21T03:15:28.379Z,37.77
2023-03-21T03:17:44.714Z,35.77
2023-03-21T03:19:55.275Z,34.00
2023-03-21T03:21:59.629Z,33.83
2023-03-21T03:24:04.082Z,38.30
2023-03-21T03:26:09.601Z,36.27
2023-03-21T03:28:12.416Z,36.77
2023-03-21T03:30:15.418Z,42.43
2023-03-21T03:32:19.273Z,32.77
2023-03-21T03:34:23.916Z,35.97
2023-03-21T03:36:32.651Z,38.10
2023-03-21T03:38:35.861Z,36.20
2023-03-21T03:40:41.893Z,37.33
2023-03-21T03:42:47.473Z,30.80
2023-03-21T03:44:50.306Z,32.93
2023-03-21T03:46:54.670Z,38.37
2023-03-21T03:48:59.310Z,36.40
2023-03-21T03:51:03.490Z,31.40
2023-03-21T03:53:17.608Z,33.37
2023-03-21T03:55:21.566Z,40.80
2023-03-21T03:57:26.091Z,31.27
2023-03-21T03:59:30.218Z,35.40
2023-03-21T04:01:33.005Z,36.47
2023-03-21T04:03:48.129Z,35.37
2023-03-21T04:05:52.489Z,36.87
2023-03-21T04:07:55.284Z,46.73
2023-03-21T04:09:58.441Z,43.43
2023-03-21T04:12:01.256Z,34.40
2023-03-21T04:14:04.036Z,39.43
2023-03-21T04:16:09.320Z,35.37
2023-03-21T04:18:12.094Z,39.57
2023-03-21T04:20:23.607Z,36.97
2023-03-21T04:22:33.804Z,37.13
2023-03-21T04:24:37.467Z,39.80
2023-03-21T04:26:40.389Z,41.67
2023-03-21T04:28:43.178Z,38.27
2023-03-21T04:30:58.901Z,36.00
2023-03-21T04:33:05.402Z,35.47
2023-03-21T04:35:09.701Z,41.27
2023-03-21T04:37:13.476Z,41.17
2023-03-21T04:39:16.402Z,41.17
2023-03-21T04:41:19.312Z,44.37
2023-03-21T04:43:23.828Z,34.40
2023-03-21T04:45:26.612Z,47.70
2023-03-21T04:47:29.416Z,32.70
2023-03-21T04:49:33.579Z,35.70
2023-03-21T04:51:36.474Z,35.93
2023-03-21T04:53:39.525Z,36.13
2023-03-21T04:55:42.323Z,35.00
2023-03-21T04:57:45.210Z,33.57
2023-03-21T04:59:48.000Z,34.47
2023-03-21T05:01:50.934Z,45.38
2023-03-21T05:03:53.782Z,41.10
2023-03-21T05:05:57.934Z,39.07
2023-03-21T05:08:00.781Z,38.40
2023-03-21T05:10:04.646Z,38.53
2023-03-21T05:12:07.715Z,36.37
2023-03-21T05:14:12.196Z,31.80
2023-03-21T05:16:14.984Z,33.30
2023-03-21T05:18:24.893Z,33.77
2023-03-21T05:20:27.762Z,39.40
2023-03-21T05:22:40.808Z,39.20
2023-03-21T05:24:43.614Z,37.97
2023-03-21T05:26:50.269Z,33.47
2023-03-21T05:28:53.337Z,41.27
2023-03-21T05:30:56.180Z,33.70
2023-03-21T05:32:59.014Z,31.73
2023-03-21T05:35:01.884Z,35.20
2023-03-21T05:37:04.658Z,33.23
2023-03-21T05:39:08.771Z,33.87
2023-03-21T05:41:11.982Z,32.07
2023-03-21T05:43:14.740Z,32.57
2023-03-21T05:45:17.608Z,30.47
2023-03-21T05:47:20.442Z,36.17
2023-03-21T05:49:24.494Z,37.10
2023-03-21T05:51:27.359Z,38.13
2023-03-21T05:53:30.662Z,33.93
2023-03-21T05:55:34.779Z,38.93
2023-03-21T05:57:40.778Z,36.30
2023-03-21T05:59:43.560Z,37.80
2023-03-21T06:01:46.883Z,40.77
2023-03-21T06:03:49.730Z,36.00
2023-03-21T06:05:52.526Z,39.47
2023-03-21T06:07:55.514Z,43.40
2023-03-21T06:09:58.338Z,51.43
2023-03-21T06:12:02.453Z,47.73
2023-03-21T06:14:05.462Z,43.73
2023-03-21T06:16:08.946Z,37.40
2023-03-21T06:18:11.715Z,44.07
2023-03-21T06:20:14.743Z,43.77
2023-03-21T06:22:17.591Z,49.47
2023-03-21T06:24:20.377Z,47.17
2023-03-21T06:26:23.431Z,47.30
2023-03-21T06:28:27.587Z,38.20
2023-03-21T06:30:30.467Z,46.90
2023-03-21T06:32:33.374Z,42.30
2023-03-21T06:34:37.756Z,42.57
2023-03-21T06:36:44.839Z,47.53
2023-03-21T06:38:48.650Z,42.50
2023-03-21T06:40:51.417Z,53.67
2023-03-21T06:42:54.244Z,43.27
2023-03-21T06:44:58.406Z,42.80
2023-03-21T06:47:01.203Z,40.43
2023-03-21T06:49:04.060Z,48.40
2023-03-21T06:51:07.509Z,49.80
2023-03-21T06:53:10.813Z,50.80
2023-03-21T06:55:13.606Z,43.90
2023-03-21T06:57:17.928Z,57.20
2023-03-21T06:59:20.963Z,49.40
2023-03-21T07:01:27.611Z,44.80
2023-03-21T07:03:31.512Z,39.33
2023-03-21T07:05:36.125Z,58.13
2023-03-21T07:07:39.213Z,50.03
2023-03-21T07:09:42.236Z,41.63
2023-03-21T07:11:45.005Z,50.43
2023-03-21T07:13:48.673Z,53.23
2023-03-21T07:15:51.491Z,41.67
2023-03-21T07:17:55.601Z,46.90
2023-03-21T07:19:58.412Z,48.33
2023-03-21T07:22:01.442Z,52.50
2023-03-21T07:24:04.235Z,50.10
2023-03-21T07:26:07.665Z,60.40
2023-03-21T07:28:10.659Z,39.07
2023-03-21T07:30:13.956Z,41.10
2023-03-21T07:32:16.740Z,35.87
2023-03-21T07:34:20.889Z,49.27
2023-03-21T07:36:23.658Z,41.90
2023-03-21T07:38:26.648Z,45.30
2023-03-21T07:40:29.422Z,41.83
2023-03-21T07:44:39.930Z,38.37
2023-03-21T07:46:42.689Z,37.53
2023-03-21T07:48:45.473Z,47.67
2023-03-21T07:50:52.929Z,39.77
2023-03-21T07:52:55.711Z,36.50
2023-03-21T07:54:58.508Z,34.57
2023-03-21T07:57:01.279Z,33.90
2023-03-21T07:59:05.574Z,43.10
2023-03-21T08:01:08.529Z,49.93
2023-03-21T08:03:11.319Z,36.50
2023-03-21T08:05:14.157Z,47.87
2023-03-21T08:07:18.253Z,54.47
2023-03-21T08:09:21.064Z,44.17
2023-03-21T08:11:24.655Z,34.30
2023-03-21T08:13:27.723Z,35.33
2023-03-21T08:15:30.581Z,50.13
2023-03-21T08:17:33.317Z,43.50
2023-03-21T08:19:37.406Z,36.10
2023-03-21T08:21:40.183Z,38.97
2023-03-21T08:23:44.355Z,34.70
2023-03-21T08:25:47.121Z,38.20
2023-03-21T08:27:50.313Z,36.77
2023-03-21T08:29:53.106Z,46.83
2023-03-21T08:31:56.061Z,48.03
2023-03-21T08:33:58.811Z,45.30
2023-03-21T08:36:01.863Z,33.87
2023-03-21T08:38:04.788Z,38.67
2023-03-21T08:40:11.464Z,44.23
2023-03-21T08:42:14.926Z,40.77
2023-03-21T08:44:17.907Z,41.80
2023-03-21T08:46:20.735Z,42.93
2023-03-21T08:48:23.777Z,46.03
2023-03-21T08:50:29.523Z,36.80
2023-03-21T08:52:32.312Z,39.50
2023-03-21T08:54:35.494Z,34.63
2023-03-21T08:56:39.591Z,46.50
2023-03-21T08:58:42.359Z,35.33
2023-03-21T09:00:45.246Z,36.17
2023-03-21T09:02:49.376Z,44.60
2023-03-21T09:04:54.802Z,43.73
2023-03-21T09:06:57.769Z,36.37
2023-03-21T09:09:00.572Z,36.33
2023-03-21T09:11:03.371Z,36.67
2023-03-21T09:13:07.480Z,45.47
2023-03-21T09:15:12.064Z,35.80
2023-03-21T09:17:14.843Z,35.50
2023-03-21T09:19:18.408Z,32.63
2023-03-21T09:21:21.249Z,34.80
2023-03-21T09:23:24.331Z,42.00
2023-03-21T09:25:29.548Z,32.80
2023-03-21T09:27:33.439Z,36.77
2023-03-21T09:29:38.032Z,47.00
2023-03-21T09:31:40.881Z,51.47
2023-03-21T09:33:43.861Z,39.27
2023-03-21T09:35:46.810Z,40.37
2023-03-21T09:37:50.125Z,39.83
2023-03-21T09:39:53.084Z,53.23
2023-03-21T09:42:06.332Z,47.97
2023-03-21T09:44:17.390Z,38.83
2023-03-21T09:46:25.456Z,47.60
2023-03-21T09:48:39.505Z,43.27
2023-03-21T09:50:42.486Z,42.47
2023-03-21T09:52:48.177Z,42.53
2023-03-21T09:54:52.161Z,38.10
2023-03-21T09:56:56.256Z,41.87
2023-03-21T09:58:59.315Z,35.57
2023-03-21T10:01:05.328Z,36.73
2023-03-21T10:03:15.433Z,34.57
2023-03-21T10:05:19.572Z,33.97
2023-03-21T10:07:22.637Z,42.70
2023-03-21T10:09:25.931Z,47.50
2023-03-21T10:11:30.966Z,41.80
2023-03-21T10:13:34.933Z,40.77
2023-03-21T10:15:38.062Z,40.93
2023-03-21T10:17:43.469Z,33.13
2023-03-21T10:19:49.257Z,45.60
2023-03-21T10:22:02.361Z,42.40
2023-03-21T10:24:06.367Z,38.07
2023-03-21T10:26:11.449Z,38.87
2023-03-21T10:28:17.483Z,27.07
2023-03-21T10:30:27.337Z,38.27
2023-03-21T10:32:30.110Z,43.83
2023-03-21T10:34:34.266Z,27.20
2023-03-21T10:36:38.630Z,28.23
2023-03-21T10:38:43.618Z,27.57
2023-03-21T10:40:46.426Z,34.03
2023-03-21T10:42:49.210Z,23.93
2023-03-21T10:44:52.740Z,31.73
2023-03-21T10:46:56.413Z,29.47
2023-03-21T10:48:59.354Z,23.73
2023-03-21T10:51:02.199Z,21.87
2023-03-21T10:53:10.710Z,33.80
2023-03-21T10:55:25.130Z,24.23
2023-03-21T10:57:27.905Z,24.30
2023-03-21T10:59:36.673Z,25.63
2023-03-21T11:01:42.512Z,22.00
2023-03-21T11:03:46.827Z,24.80
2023-03-21T11:05:49.649Z,27.03
2023-03-21T11:08:03.314Z,34.07
2023-03-21T11:10:19.939Z,23.70
2023-03-21T11:12:31.530Z,24.87
2023-03-21T11:14:37.181Z,31.27
2023-03-21T11:16:41.254Z,37.90
2023-03-21T11:18:44.834Z,32.07
2023-03-21T11:20:51.314Z,39.27
2023-03-21T11:22:55.767Z,25.40
2023-03-21T11:24:59.897Z,25.53
2023-03-21T11:27:07.062Z,29.40
2023-03-21T11:29:22.015Z,32.63
2023-03-21T11:31:27.053Z,25.23
2023-03-21T11:33:32.567Z,29.50
2023-03-21T11:35:37.095Z,24.53
2023-03-21T11:37:41.143Z,28.87
2023-03-21T11:39:43.913Z,33.13
2023-03-21T11:41:48.913Z,24.80
2023-03-21T11:43:54.210Z,23.43
2023-03-21T11:45:58.229Z,26.53
2023-03-21T11:48:01.759Z,20.77
2023-03-21T11:50:15.195Z,26.47
2023-03-21T11:52:21.974Z,30.63
2023-03-21T11:54:28.186Z,23.43
2023-03-21T11:56:33.236Z,24.27
2023-03-21T11:58:43.976Z,20.90
2023-03-21T12:00:51.452Z,18.40
2023-03-21T12:03:19.495Z,17.30
2023-03-21T12:05:25.111Z,27.87
2023-03-21T12:07:44.807Z,27.60
2023-03-21T12:09:48.838Z,23.50
2023-03-21T12:11:56.424Z,22.70
2023-03-21T12:14:03.729Z,22.43
2023-03-21T12:16:14.529Z,23.10
2023-03-21T12:18:27.301Z,21.23
2023-03-21T12:20:42.121Z,24.07
2023-03-21T12:22:51.150Z,23.73
2023-03-21T12:24:55.838Z,20.60
2023-03-21T12:27:00.971Z,21.80
2023-03-21T12:29:30.042Z,21.57
2023-03-21T12:31:37.638Z,20.80
2023-03-21T12:33:50.930Z,22.17
2023-03-21T12:36:00.801Z,19.80
2023-03-21T12:38:13.412Z,21.57
2023-03-21T12:40:21.505Z,23.17
2023-03-21T12:43:03.225Z,18.97
2023-03-21T12:45:15.360Z,23.03
2023-03-21T12:47:22.308Z,14.47
2023-03-21T12:49:27.735Z,27.63
2023-03-21T12:51:32.708Z,17.43
2023-03-21T12:53:40.407Z,18.20
2023-03-21T12:55:43.169Z,19.30
2023-03-21T12:57:57.233Z,19.87
2023-03-21T13:00:02.060Z,18.27
2023-03-21T13:02:16.820Z,19.90
2023-03-21T13:04:32.847Z,22.37
2023-03-21T13:06:36.602Z,20.13
2023-03-21T13:08:39.822Z,19.93
2023-03-21T13:10:43.145Z,21.83
2023-03-21T13:12:50.218Z,16.00
2023-03-21T13:15:00.372Z,20.97
2023-03-21T13:17:04.811Z,19.87
2023-03-21T13:19:14.485Z,16.67
2023-03-21T13:21:19.579Z,16.83
2023-03-21T13:23:22.763Z,19.40
2023-03-21T13:25:26.333Z,21.47
2023-03-21T13:27:29.862Z,20.70
2023-03-21T13:29:33.706Z,15.10
2023-03-21T13:31:51.029Z,16.60
2023-03-21T13:33:55.273Z,16.67
2023-03-21T13:36:05.217Z,22.93
2023-03-21T13:38:13.643Z,19.80
2023-03-21T13:40:22.646Z,17.60
2023-03-21T13:42:26.052Z,19.57
2023-03-21T13:44:34.166Z,18.27
2023-03-21T13:46:50.580Z,18.27
2023-03-21T13:49:00.383Z,16.70
2023-03-21T13:51:03.707Z,18.00
2023-03-21T13:53:21.595Z,22.00
2023-03-21T13:55:24.553Z,15.43
2023-03-21T13:57:40.125Z,20.07
2023-03-21T13:59:43.991Z,18.43
2023-03-21T14:01:59.600Z,16.27
2023-03-21T14:04:06.525Z,16.73
2023-03-21T14:06:09.803Z,15.07
2023-03-21T14:08:27.943Z,16.97
2023-03-21T14:10:35.519Z,18.80
2023-03-21T14:12:39.326Z,17.40
2023-03-21T14:14:43.487Z,14.27
2023-03-21T14:16:46.487Z,17.90
2023-03-21T14:18:54.407Z,16.60
2023-03-21T14:20:58.410Z,15.53
2023-03-21T14:23:01.328Z,13.50
2023-03-21T14:25:05.949Z,17.93
2023-03-21T14:27:08.862Z,13.20
2023-03-21T14:29:25.846Z,19.73
2023-03-21T14:31:29.486Z,15.70
2023-03-21T14:33:33.376Z,13.23
2023-03-21T14:35:36.147Z,18.57
2023-03-21T14:37:40.666Z,13.77
2023-03-21T14:39:43.451Z,17.47
2023-03-21T14:41:49.789Z,17.43
2023-03-21T14:44:12.946Z,13.63
2023-03-21T14:46:15.852Z,13.63
2023-03-21T14:48:18.770Z,15.77
2023-03-21T14:50:23.374Z,16.13
2023-03-21T14:52:27.008Z,16.03
2023-03-21T14:54:29.999Z,20.63
2023-03-21T14:56:32.783Z,25.00
2023-03-21T14:58:38.431Z,19.23
2023-03-21T15:00:41.578Z,12.60
2023-03-21T15:02:45.970Z,18.53
2023-03-21T15:04:51.398Z,19.73
2023-03-21T15:06:56.013Z,14.93
2023-03-21T15:08:59.639Z,16.67
2023-03-21T15:11:07.177Z,14.70
2023-03-21T15:13:17.441Z,16.07
2023-03-21T15:15:23.876Z,14.57
2023-03-21T15:17:28.204Z,11.50
2023-03-21T15:19:32.810Z,17.00
2023-03-21T15:21:36.645Z,16.47
2023-03-21T15:23:40.482Z,17.33
2023-03-21T15:25:43.372Z,21.00
2023-03-21T15:27:46.168Z,13.37
2023-03-21T15:29:49.152Z,14.63
2023-03-21T15:31:53.324Z,19.80
2023-03-21T15:33:56.444Z,15.30
2023-03-21T15:35:59.546Z,16.40
2023-03-21T15:38:04.574Z,13.03
2023-03-21T15:40:11.307Z,14.50
2023-03-21T15:42:28.846Z,18.23
2023-03-21T15:44:32.091Z,14.13
2023-03-21T15:46:41.028Z,19.73
2023-03-21T15:48:45.337Z,13.43
2023-03-21T15:50:50.282Z,16.17
2023-03-21T15:52:53.327Z,15.70
2023-03-21T15:54:56.866Z,12.17
2023-03-21T15:57:03.329Z,24.40
2023-03-21T15:59:06.490Z,13.73
2023-03-21T16:01:12.190Z,13.97
2023-03-21T16:03:17.599Z,14.80
2023-03-21T16:05:27.389Z,15.90
2023-03-21T16:07:30.506Z,12.67
2023-03-21T16:09:40.734Z,11.77
2023-03-21T16:11:44.201Z,19.80
2023-03-21T16:13:47.019Z,13.93
2023-03-21T16:15:49.817Z,12.37
2023-03-21T16:17:54.499Z,20.73
2023-03-21T16:19:57.311Z,13.20
2023-03-21T16:22:01.461Z,13.23
2023-03-21T16:24:04.394Z,13.53
2023-03-21T16:26:07.596Z,19.60
2023-03-21T16:28:12.075Z,17.73
2023-03-21T16:30:15.852Z,17.70
2023-03-21T16:32:20.459Z,23.07
2023-03-21T16:34:23.303Z,12.93
2023-03-21T16:36:26.936Z,11.97
2023-03-21T16:38:31.077Z,11.90
2023-03-21T16:40:36.021Z,17.20
2023-03-21T16:42:39.952Z,13.83
2023-03-21T16:44:42.717Z,13.53
2023-03-21T16:46:47.082Z,17.87
2023-03-21T16:48:50.936Z,15.70
2023-03-21T16:50:53.684Z,16.03
2023-03-21T16:52:56.778Z,10.50
2023-03-21T16:55:00.949Z,13.80
2023-03-21T16:57:04.607Z,11.57
2023-03-21T16:59:07.949Z,23.43
2023-03-21T17:01:13.744Z,22.13
2023-03-21T17:03:18.989Z,17.70
2023-03-21T17:05:22.044Z,16.80
2023-03-21T17:07:24.826Z,16.93
2023-03-21T17:09:27.916Z,14.40
2023-03-21T17:11:36.049Z,15.63
2023-03-21T17:13:38.852Z,21.40
2023-03-21T17:15:42.131Z,17.87
2023-03-21T17:17:45.032Z,12.63
2023-03-21T17:19:47.881Z,16.20
2023-03-21T17:21:50.686Z,15.23
2023-03-21T17:23:53.508Z,10.17
2023-03-21T17:25:56.630Z,12.67
2023-03-21T17:28:00.814Z,13.57
2023-03-21T17:30:03.600Z,8.97
2023-03-21T17:32:06.487Z,12.90
2023-03-21T17:34:09.733Z,12.13
2023-03-21T17:36:14.554Z,9.13
2023-03-21T17:38:17.879Z,14.40
2023-03-21T17:40:22.261Z,8.97
2023-03-21T17:42:25.034Z,17.73
2023-03-21T17:44:29.150Z,10.00
2023-03-21T17:46:33.591Z,11.30
2023-03-21T17:48:36.413Z,12.00
2023-03-21T17:50:39.909Z,14.00
2023-03-21T17:52:42.912Z,8.33
2023-03-21T17:54:45.690Z,12.40
2023-03-21T17:56:48.493Z,13.43
2023-03-21T17:58:51.322Z,9.03
2023-03-21T18:00:55.459Z,8.73
2023-03-21T18:02:58.261Z,17.53
2023-03-21T18:05:01.348Z,12.67
2023-03-21T18:07:04.181Z,12.20
2023-03-21T18:09:11.392Z,10.73
2023-03-21T18:11:15.240Z,16.20
2023-03-21T18:13:18.047Z,10.53
2023-03-21T18:15:20.957Z,15.93
2023-03-21T18:17:26.000Z,12.50
2023-03-21T18:19:28.825Z,12.40
2023-03-21T18:21:33.031Z,8.70
2023-03-21T18:23:35.996Z,9.53
2023-03-21T18:25:38.821Z,22.87
2023-03-21T18:28:06.779Z,15.87
2023-03-21T18:30:28.543Z,7.67
2023-03-21T18:32:29.199Z,11.17
2023-03-21T18:34:32.048Z,10.40
2023-03-21T18:36:35.545Z,13.40
2023-03-21T18:38:38.488Z,14.43
2023-03-21T18:40:41.813Z,10.60
2023-03-21T18:43:27.386Z,13.83
2023-03-21T18:45:08.949Z,8.67
2023-03-21T18:47:11.866Z,9.40
2023-03-21T18:51:39.840Z,12.40
2023-03-21T18:53:42.645Z,11.50
2023-03-21T18:55:47.414Z,9.70
2023-03-21T18:57:52.242Z,9.13
2023-03-21T18:59:55.048Z,14.73
2023-03-21T19:01:57.850Z,19.80
2023-03-21T19:04:20.128Z,12.20
2023-03-21T19:06:25.124Z,11.93
2023-03-21T19:08:28.054Z,11.77
2023-03-21T19:10:31.058Z,7.97
2023-03-21T19:12:34.076Z,14.27
2023-03-21T19:14:36.879Z,11.63
2023-03-21T19:17:04.859Z,12.20
2023-03-21T19:19:02.647Z,11.93
2023-03-21T19:21:06.319Z,11.43
2023-03-21T19:23:10.944Z,11.90
2023-03-21T19:25:14.651Z,10.40
2023-03-21T19:27:17.507Z,11.37
2023-03-21T19:29:20.529Z,9.93
2023-03-21T19:31:24.194Z,8.30
2023-03-21T19:33:27.128Z,10.63
2023-03-21T19:35:29.939Z,10.47
2023-03-21T19:37:35.233Z,11.43
2023-03-21T19:39:39.804Z,12.53
2023-03-21T19:41:42.693Z,14.93
2023-03-21T19:43:53.708Z,7.53
2023-03-21T19:45:58.005Z,10.10
2023-03-21T19:48:00.878Z,12.27
2023-03-21T19:50:40.855Z,8.70
2023-03-21T19:52:26.626Z,8.60
2023-03-21T19:54:30.320Z,8.47
2023-03-21T19:56:34.915Z,6.93
2023-03-21T19:58:37.784Z,6.73
2023-03-21T20:00:40.628Z,10.50
2023-03-21T20:02:45.226Z,12.80
2023-03-21T20:04:48.122Z,10.37
2023-03-21T20:06:54.258Z,8.87
2023-03-21T20:09:41.355Z,11.47
2023-03-21T20:11:19.899Z,8.60
2023-03-21T20:13:24.021Z,9.13
2023-03-21T20:15:29.971Z,7.37
2023-03-21T20:17:33.507Z,8.67
2023-03-21T20:19:36.753Z,12.77
2023-03-21T20:21:49.043Z,12.20
2023-03-21T20:23:56.424Z,10.97
2023-03-21T20:25:59.198Z,7.93
2023-03-21T20:28:15.068Z,12.37
2023-03-21T20:30:20.582Z,9.47
2023-03-21T20:32:23.348Z,8.07
2023-03-21T20:34:26.127Z,10.80
2023-03-21T20:36:39.683Z,10.30
2023-03-21T20:38:43.443Z,12.60
2023-03-21T20:40:46.210Z,8.50
2023-03-21T20:42:50.273Z,13.07
2023-03-21T20:44:58.771Z,8.57
2023-03-21T20:47:05.400Z,13.30
2023-03-21T20:49:08.224Z,11.33
2023-03-21T20:52:14.822Z,10.40
2023-03-21T20:53:35.275Z,9.40
2023-03-21T20:55:38.158Z,9.50
2023-03-21T20:57:41.280Z,14.37
2023-03-21T20:59:45.002Z,9.63
2023-03-21T21:01:48.100Z,7.37
2023-03-21T21:03:53.098Z,14.93
2023-03-21T21:05:55.938Z,9.50
2023-03-21T21:07:58.876Z,8.70
2023-03-21T21:10:01.771Z,8.40
2023-03-21T21:12:07.536Z,11.93
2023-03-21T21:14:11.262Z,10.07
2023-03-21T21:16:14.689Z,11.43
2023-03-21T21:18:17.464Z,8.10
2023-03-21T21:20:21.964Z,7.53
2023-03-21T21:22:24.746Z,11.50
2023-03-21T21:24:27.556Z,9.57
2023-03-21T21:26:30.341Z,7.87
2023-03-21T21:28:33.209Z,13.40
2023-03-21T21:30:38.596Z,18.13
2023-03-21T21:32:41.997Z,8.00
2023-03-21T21:34:44.790Z,10.63
2023-03-21T21:36:49.644Z,13.10
2023-03-21T21:38:53.005Z,12.07
2023-03-21T21:40:57.570Z,9.27
2023-03-21T21:43:03.906Z,10.97
2023-03-21T21:45:08.536Z,8.93
2023-03-21T21:47:11.336Z,11.73
2023-03-21T21:49:14.091Z,10.90
2023-03-21T21:51:18.035Z,9.03
2023-03-21T21:53:22.779Z,10.60
2023-03-21T21:55:25.565Z,7.50
2023-03-21T21:57:30.439Z,11.37
2023-03-21T21:59:33.996Z,9.10
2023-03-21T22:01:38.556Z,11.73
2023-03-21T22:03:42.229Z,9.67
2023-03-21T22:05:45.393Z,7.70
2023-03-21T22:07:48.234Z,9.67
2023-03-21T22:09:52.547Z,9.03
2023-03-21T22:11:56.585Z,9.73
2023-03-21T22:13:59.393Z,9.90
2023-03-21T22:16:02.196Z,16.00
2023-03-21T22:18:05.178Z,11.03
2023-03-21T22:20:09.640Z,8.43
2023-03-21T22:22:12.473Z,9.80
2023-03-21T22:24:15.446Z,12.03
2023-03-21T22:26:19.578Z,7.87
2023-03-21T22:28:25.494Z,9.33
2023-03-21T22:30:28.279Z,10.00
2023-03-21T22:32:31.100Z,10.07
2023-03-21T22:34:33.879Z,13.40
2023-03-21T22:36:36.668Z,12.57
2023-03-21T22:38:41.798Z,8.50
2023-03-21T22:40:44.643Z,11.77
2023-03-21T22:42:48.748Z,15.07
2023-03-21T22:44:51.528Z,14.97
2023-03-21T22:46:54.303Z,9.57
2023-03-21T22:48:57.086Z,6.40
2023-03-21T22:51:00.501Z,11.73
2023-03-21T22:53:03.300Z,10.90
2023-03-21T22:55:09.641Z,8.80
2023-03-21T22:57:13.575Z,12.20
2023-03-21T22:59:17.754Z,12.17
2023-03-21T23:01:20.726Z,7.80
2023-03-21T23:03:23.520Z,9.47
2023-03-21T23:05:26.522Z,10.80
2023-03-21T23:07:29.282Z,10.40
2023-03-21T23:09:32.088Z,8.40
2023-03-21T23:11:34.856Z,11.17
2023-03-21T23:13:37.667Z,14.63
2023-03-21T23:15:41.895Z,12.67
2023-03-21T23:17:44.780Z,9.50
2023-03-21T23:19:47.580Z,14.73
2023-03-21T23:21:50.340Z,9.60
2023-03-21T23:23:53.718Z,13.53
2023-03-21T23:25:57.612Z,15.33
2023-03-21T23:28:00.441Z,12.53
2023-03-21T23:30:03.995Z,11.40
2023-03-21T23:32:08.094Z,15.30
2023-03-21T23:34:10.892Z,14.60
2023-03-21T23:36:13.862Z,10.67
2023-03-21T23:38:16.609Z,15.70
2023-03-21T23:40:19.543Z,9.53
2023-03-21T23:42:22.430Z,11.57
2023-03-21T23:44:25.263Z,13.20
2023-03-21T23:46:28.176Z,13.00
2023-03-21T23:48:32.405Z,11.27
2023-03-21T23:50:35.284Z,15.67
2023-03-21T23:52:38.223Z,12.87
2023-03-21T23:54:41.047Z,14.23
2023-03-21T23:56:43.917Z,13.43
2023-03-21T23:58:46.926Z,12.20
